Etusivu
METAR-TAF:

METAR-TAF

Lentoasemat :

Kuusamon lentoasema

Kuusamo, Suomi

Leveyspiiri: 65-58N, Pituuspiiri: 029-11E, korkeus merenpinnasta: 262 m

Tämänhetkinen sää

Tämä raportti tehtiin 32 minuuttia sitten, kello 19.20 UTC
tyyntä
Lämpötila 5°C
Kosteus 70%
Ilmanpaine 1024 hPa
Näkyvyys 10 km tai enemmän
ei pilviä alle 1500 m:ssä eikä cumulonimbus-pilviä

METAR: EFKS 241920Z AUTO 00000KT CAVOK 05/00 Q1024

Aika: 22:52 (19:52 UTC)

Sääennuste

Tämä raportti tehtiin 11 tuntia ja 22 minuuttia sitten, kello 08.30 UTC
Ennuste voimassa 24. päivästä klo 09 UTC - 24. päivään klo 13 UTC
Tuuli 2 kn eri suunnista
Näkyvyys 10 km tai enemmän
ei pilviä alle 1500 m:ssä eikä cumulonimbus-pilviä

TAF: EFKS 240830Z 2409/2413 VRB02KT CAVOK

Säähavainnot ja -ennusteet yli 4000 lentoasemalta (METAR- ja TAF-raportit).

Käytössä olevat sääasemat on merkitty karttaan keltaisilla ja punaisilla pisteillä.

Aseta hiiri pisteen päälle nähdäksesi sääaseman nimen.

Klikkaa sitten nähdäksesi säähavainnot ja -ennusteet.

Kartan vaihtaminen: klikkaa mustalla rastilla varustettuja vihreitä pisteitä, niin voit zoomata sisään; viivalla varustettua vihreää pistettä, niin voit zoomata ulos tai vihreitä nuolia, niin pääset viereisille kartoille.


METAR-TAF: